Terminal Aerodrome Forecast
Issued by NWS Sioux Falls, SD

Home | Current Version | Previous Version | Graphics & Text | Print | Product List | Glossary Off
Versions: 1 2 3 4 5 6 7 8 9 10 11 12 13 14 15 16

733
FTUS43 KFSD 041615 AAD
TAFHON
TAF AMD
KHON 041615Z 0416/0512 34012KT P6SM SCT025
      TEMPO 0417/0419 BKN025
     FM042000 31008KT P6SM SCT040
     FM042300 VRB03KT P6SM SCT150
     FM050500 16007KT P6SM BKN130=

USA.gov is the U.S. government's official web portal to all federal, state and local government web resources and services.